Terminal Aerodrome Forecast
Issued by NWS

Home | Current Version | Previous Version | Graphics & Text | Print | Product List | Glossary On
Versions: 1 2 3 4 5 6 7 8 9 10 11 12 13 14 15 16 17 18 19 20 21 22 23 24 25
000
FTUS43 KABR 191734
TAFMBG
TAF
KMBG 191734Z 1918/2018 18004KT P6SM FEW005 FEW200
     FM200300 17006KT 3SM BR SCT050
     FM201000 14004KT 2SM BR BKN040
     FM201200 16004KT 2SM BR BKN008
     FM201600 14006KT P6SM BKN008=

USA.gov is the U.S. government's official web portal to all federal, state and local government web resources and services.